Time;durP1;ratioP1;P1;durP2;ratioP2;P2;SDS_P1;SDS_P2;PMS_P1;PMS_P2;Temp;Humidity;BMP_temperature;BMP_pressure;BME280_temperature;BME280_humidity;BME280_pressure;Samples;Min_cycle;Max_cycle;Signal;HPM_P1;HPM_P2
2023/12/09 00:01:09;;;;;;;24.08;13.38;;;7.10;99.90;;;7.23;100.00;100436.22;4867253;28;24475;-65
2023/12/09 00:03:31;;;;;;;25.08;14.23;;;7.00;99.90;;;7.21;100.00;100433.72;4872363;28;24442;-66
2023/12/09 00:05:53;;;;;;;29.13;14.98;;;7.00;99.90;;;7.20;100.00;100445.00;4870097;28;24477;-66
2023/12/09 00:08:15;;;;;;;25.88;14.20;;;7.00;99.90;;;7.19;100.00;100448.56;4874975;28;24475;-65
2023/12/09 00:10:37;;;;;;;29.05;14.60;;;7.00;99.90;;;7.19;100.00;100451.16;4873147;28;24427;-66
2023/12/09 00:12:59;;;;;;;27.20;14.60;;;7.00;99.90;;;7.20;100.00;100445.00;4875237;28;24433;-65
2023/12/09 00:15:21;;;;;;;24.40;13.70;;;7.00;99.90;;;7.20;100.00;100446.81;4875416;28;24492;-66
2023/12/09 00:17:43;;;;;;;24.55;14.13;;;7.00;99.90;;;7.20;100.00;100450.22;4861080;28;24445;-66
2023/12/09 00:20:07;;;;;;;24.27;13.70;;;7.00;99.90;;;7.20;100.00;100447.63;4874846;28;24526;-65
2023/12/09 00:22:29;;;;;;;23.75;14.00;;;7.00;99.90;;;7.22;100.00;100445.75;4873957;28;24526;-65
2023/12/09 00:24:51;;;;;;;24.67;14.30;;;7.00;99.90;;;7.27;100.00;100448.91;4873857;28;24434;-66
2023/12/09 00:27:13;;;;;;;27.90;14.00;;;7.10;99.90;;;7.28;100.00;100452.34;4872975;28;24542;-65
2023/12/09 00:29:35;;;;;;;26.87;14.90;;;7.10;99.90;;;7.29;100.00;100459.19;4874271;28;24439;-66
2023/12/09 00:31:57;;;;;;;28.67;14.90;;;7.10;99.90;;;7.29;100.00;100457.44;4874145;28;24431;-65
2023/12/09 00:34:19;;;;;;;24.98;14.38;;;7.10;99.90;;;7.32;100.00;100457.25;4877671;28;24489;-66
2023/12/09 00:36:41;;;;;;;27.67;14.47;;;7.10;99.90;;;7.33;100.00;100466.69;4877117;28;24459;-65
2023/12/09 00:39:03;;;;;;;21.80;12.98;;;7.10;99.90;;;7.37;100.00;100468.19;4862806;28;25019;-66
2023/12/09 00:41:25;;;;;;;24.58;13.20;;;7.10;99.90;;;7.39;100.00;100471.50;4856410;28;25009;-66
2023/12/09 00:43:46;;;;;;;24.85;13.50;;;7.10;99.90;;;7.39;100.00;100462.91;4869772;28;24447;-65
2023/12/09 00:46:08;;;;;;;24.80;13.68;;;7.20;99.90;;;7.37;100.00;100455.19;4862521;28;24530;-65
2023/12/09 00:48:30;;;;;;;23.73;13.65;;;7.20;99.90;;;7.30;100.00;100440.97;4855758;28;24428;-65
2023/12/09 00:50:52;;;;;;;24.92;13.82;;;7.10;99.90;;;7.31;100.00;100455.59;4866776;28;24469;-66
2023/12/09 00:53:14;;;;;;;29.67;15.43;;;7.10;99.90;;;7.33;100.00;100463.25;4876737;28;24408;-65
2023/12/09 00:55:36;;;;;;;27.63;15.05;;;7.10;99.90;;;7.28;100.00;100467.91;4874155;28;24453;-67
2023/12/09 00:57:58;;;;;;;26.67;13.38;;;7.10;99.90;;;7.19;100.00;100460.69;4865622;28;24533;-63
2023/12/09 01:00:20;;;;;;;28.92;13.40;;;7.10;99.90;;;7.18;100.00;100465.03;4877714;28;24457;-67
2023/12/09 01:02:42;;;;;;;25.55;13.65;;;7.00;99.90;;;7.19;100.00;100466.72;4870599;28;24431;-67
2023/12/09 01:05:05;;;;;;;25.80;14.10;;;7.00;99.90;;;7.21;100.00;100467.47;4867202;28;24455;-66
2023/12/09 01:07:27;;;;;;;25.25;13.90;;;7.00;99.90;;;7.19;100.00;100471.06;4876806;28;25231;-64
2023/12/09 01:09:49;;;;;;;24.13;13.40;;;7.00;99.90;;;7.18;100.00;100480.59;4870600;28;24450;-66
2023/12/09 01:12:11;;;;;;;23.67;13.80;;;7.00;99.90;;;7.18;100.00;100478.00;4876789;28;24431;-66
2023/12/09 01:14:34;;;;;;;23.58;13.70;;;7.00;99.90;;;7.20;100.00;100483.13;4879281;28;24975;-67
2023/12/09 01:16:55;;;;;;;25.65;14.40;;;7.00;99.90;;;7.21;100.00;100479.59;4876812;28;24447;-64
2023/12/09 01:19:17;;;;;;;23.23;13.18;;;7.00;99.90;;;7.25;100.00;100479.31;4880793;28;24470;-64
2023/12/09 01:21:39;;;;;;;21.92;13.27;;;7.10;99.90;;;7.30;100.00;100473.84;4878678;28;24434;-66
2023/12/09 01:24:02;;;;;;;23.85;12.90;;;7.10;99.90;;;7.31;100.00;100478.09;4872289;28;24518;-66
2023/12/09 01:26:24;;;;;;;22.60;12.80;;;7.10;99.90;;;7.32;100.00;100477.19;4880311;28;24431;-66
2023/12/09 01:28:46;;;;;;;24.77;13.38;;;7.10;99.90;;;7.27;100.00;100482.66;4878031;28;24445;-65
2023/12/09 01:31:08;;;;;;;22.37;13.43;;;7.10;99.90;;;7.27;100.00;100489.59;4879413;28;24432;-63
2023/12/09 01:33:30;;;;;;;25.83;13.68;;;7.10;99.90;;;7.28;100.00;100494.72;4876224;28;24550;-65
2023/12/09 01:35:52;;;;;;;24.08;13.10;;;7.10;99.90;;;7.27;100.00;100495.63;4860241;28;24434;-65
2023/12/09 01:38:14;;;;;;;24.53;13.40;;;7.10;99.90;;;7.25;100.00;100497.47;4867104;28;25164;-64
2023/12/09 01:40:36;;;;;;;22.35;12.75;;;7.10;99.90;;;7.27;100.00;100498.22;4856757;28;24543;-65
2023/12/09 01:42:58;;;;;;;21.67;12.60;;;7.10;99.90;;;7.31;100.00;100504.88;4870368;28;24447;-66
2023/12/09 01:45:20;;;;;;;24.25;12.82;;;7.10;99.90;;;7.38;100.00;100507.97;4877368;28;24514;-65
2023/12/09 01:47:43;;;;;;;22.10;13.02;;;7.10;99.90;;;7.39;100.00;100505.25;4874651;28;24860;-66
2023/12/09 01:50:07;;;;;;;21.65;12.70;;;7.20;99.90;;;7.41;100.00;100500.81;4873798;28;25040;-65
2023/12/09 01:52:31;;;;;;;22.15;12.43;;;7.20;99.90;;;7.45;100.00;100491.91;4868301;28;24996;-66
2023/12/09 01:54:53;;;;;;;23.45;12.88;;;7.20;99.90;;;7.48;100.00;100490.88;4877753;28;24514;-65
2023/12/09 01:57:15;;;;;;;24.30;13.15;;;7.30;99.90;;;7.46;100.00;100491.00;4862426;28;24451;-66
2023/12/09 01:59:37;;;;;;;25.00;13.67;;;7.30;99.90;;;7.46;100.00;100485.78;4866122;28;24461;-65
2023/12/09 02:02:01;;;;;;;23.98;13.57;;;7.30;99.90;;;7.47;100.00;100491.81;4865065;28;25199;-63
2023/12/09 02:04:23;;;;;;;21.65;13.48;;;7.30;99.90;;;7.49;100.00;100496.00;4873631;28;24515;-65
2023/12/09 02:06:45;;;;;;;22.10;12.65;;;7.30;99.90;;;7.51;100.00;100488.13;4872765;28;24492;-66
2023/12/09 02:09:09;;;;;;;20.73;12.80;;;7.30;99.90;;;7.53;100.00;100483.66;4877421;28;24491;-65
2023/12/09 02:11:50;;;;;;;24.48;13.40;;;7.30;99.90;;;7.53;100.00;100487.09;4875080;28;25007;-66
2023/12/09 02:14:38;;;;;;;24.92;14.13;;;7.30;99.90;;;7.56;100.00;100496.47;4871500;28;24451;-66
2023/12/09 02:17:16;;;;;;;24.52;13.85;;;7.30;99.90;;;7.55;100.00;100490.44;4872396;28;24537;-65
2023/12/09 02:19:39;;;;;;;23.17;13.60;;;7.40;99.90;;;7.59;100.00;100491.06;4873789;28;24534;-66
2023/12/09 02:22:08;;;;;;;23.30;13.50;;;7.40;99.90;;;7.53;100.00;100487.09;4874789;28;24427;-65
2023/12/09 02:24:31;;;;;;;25.08;13.90;;;7.40;99.90;;;7.54;100.00;100488.75;4873374;28;24497;-65
2023/12/09 02:27:10;;;;;;;23.75;13.10;;;7.30;99.90;;;7.55;100.00;100476.59;4876427;28;24998;-65
2023/12/09 02:29:44;;;;;;;20.92;12.00;;;7.30;99.90;;;7.56;100.00;100471.31;4864341;28;25107;-65
2023/12/09 02:32:08;;;;;;;20.95;12.60;;;7.40;99.90;;;7.58;100.00;100461.66;4865889;28;24462;-65
2023/12/09 02:34:31;;;;;;;22.35;12.75;;;7.40;99.90;;;7.60;100.00;100467.59;4861461;28;24452;-65
2023/12/09 02:36:54;;;;;;;21.95;13.00;;;7.40;99.90;;;7.61;100.00;100465.84;4855201;28;24436;-65
2023/12/09 02:39:18;;;;;;;24.08;12.80;;;7.40;99.90;;;7.62;100.00;100468.31;4861183;28;24447;-65
2023/12/09 02:41:41;;;;;;;20.93;11.90;;;7.40;99.90;;;7.56;100.00;100455.72;4874627;28;24459;-65
2023/12/09 02:44:04;;;;;;;24.15;12.95;;;7.40;99.90;;;7.48;100.00;100449.34;4866225;28;25065;-66
2023/12/09 02:46:26;;;;;;;22.25;13.15;;;7.30;99.90;;;7.49;100.00;100436.28;4874979;28;24820;-65
2023/12/09 02:48:48;;;;;;;20.75;11.60;;;7.30;99.90;;;7.55;100.00;100432.47;4871405;28;24542;-66
2023/12/09 02:51:10;;;;;;;22.67;12.45;;;7.30;99.90;;;7.57;100.00;100431.44;4874467;28;24432;-65
2023/12/09 02:53:32;;;;;;;19.63;11.40;;;7.40;99.90;;;7.60;100.00;100428.66;4876636;28;24431;-64
2023/12/09 02:55:54;;;;;;;19.63;11.67;;;7.40;99.90;;;7.63;100.00;100425.88;4874942;28;24605;-65
2023/12/09 02:58:16;;;;;;;21.70;11.82;;;7.40;99.90;;;7.66;100.00;100420.50;4874229;28;24451;-65
2023/12/09 03:00:38;;;;;;;19.75;11.82;;;7.40;99.90;;;7.65;100.00;100410.19;4866875;28;24543;-65
2023/12/09 03:03:00;;;;;;;19.73;11.38;;;7.50;99.90;;;7.66;100.00;100412.69;4858220;28;24860;-65
2023/12/09 03:05:22;;;;;;;18.50;11.00;;;7.50;99.90;;;7.65;100.00;100402.38;4867603;28;24479;-65
2023/12/09 03:07:44;;;;;;;21.80;12.20;;;7.50;99.90;;;7.63;100.00;100404.25;4861293;28;24849;-65
2023/12/09 03:10:06;;;;;;;21.88;12.40;;;7.50;99.90;;;7.65;100.00;100398.03;4874424;28;24434;-65
2023/12/09 03:12:28;;;;;;;17.80;11.50;;;7.40;99.90;;;7.67;100.00;100401.38;4872827;28;24443;-65
2023/12/09 03:14:52;;;;;;;20.25;11.98;;;7.40;99.90;;;7.68;100.00;100403.06;4876501;28;24485;-65
2023/12/09 03:17:14;;;;;;;19.20;11.50;;;7.50;99.90;;;7.69;100.00;100406.47;4862772;28;24435;-65
2023/12/09 03:19:36;;;;;;;19.45;11.60;;;7.50;99.90;;;7.68;100.00;100410.84;4856412;28;24467;-65
2023/12/09 03:21:59;;;;;;;19.50;11.60;;;7.50;99.90;;;7.71;100.00;100407.19;4856826;28;24530;-65
2023/12/09 03:24:21;;;;;;;20.52;11.35;;;7.50;99.90;;;7.72;100.00;100409.72;4866658;28;24478;-65
2023/12/09 03:26:43;;;;;;;20.43;11.80;;;7.50;99.90;;;7.71;100.00;100397.66;4873616;28;24923;-65
2023/12/09 03:29:05;;;;;;;21.10;12.05;;;7.50;99.90;;;7.74;100.00;100407.84;4874636;28;24497;-65
2023/12/09 03:31:26;;;;;;;18.55;11.20;;;7.50;99.90;;;7.74;100.00;100401.81;4871918;28;24816;-65
2023/12/09 03:33:48;;;;;;;22.15;12.07;;;7.50;99.90;;;7.71;100.00;100402.84;4875478;28;24482;-65
2023/12/09 03:36:14;;;;;;;20.57;11.80;;;7.60;99.90;;;7.70;100.00;100402.94;4854802;28;25319;-65
2023/12/09 03:38:36;;;;;;;19.90;11.50;;;7.50;99.90;;;7.69;100.00;100398.66;4875887;28;24440;-65
2023/12/09 03:40:58;;;;;;;21.52;12.40;;;7.50;99.90;;;7.68;100.00;100389.22;4871825;28;24541;-65
2023/12/09 03:43:20;;;;;;;20.80;11.85;;;7.50;99.90;;;7.63;100.00;100407.69;4870965;28;24444;-65
2023/12/09 03:45:42;;;;;;;20.63;12.30;;;7.50;99.90;;;7.59;100.00;100395.00;4863970;28;25073;-65
2023/12/09 03:48:04;;;;;;;22.55;12.18;;;7.40;99.90;;;7.59;100.00;100393.25;4869753;28;25294;-65
2023/12/09 03:50:26;;;;;;;21.13;12.37;;;7.40;99.90;;;7.56;100.00;100397.81;4873816;28;24522;-66
2023/12/09 03:52:48;;;;;;;23.70;12.27;;;7.40;99.90;;;7.61;100.00;100398.31;4871916;28;24648;-65
2023/12/09 03:55:10;;;;;;;21.17;12.25;;;7.40;99.90;;;7.63;100.00;100391.28;4877846;28;24527;-65
2023/12/09 03:57:33;;;;;;;19.27;11.80;;;7.40;99.90;;;7.60;100.00;100386.28;4863870;28;24438;-64
2023/12/09 03:59:55;;;;;;;20.08;12.75;;;7.40;99.90;;;7.62;100.00;100393.03;4869001;28;24443;-65
2023/12/09 04:02:18;;;;;;;23.77;12.85;;;7.40;99.90;;;7.63;100.00;100389.50;4861437;28;24546;-64
2023/12/09 04:04:40;;;;;;;23.63;13.03;;;7.40;99.90;;;7.60;100.00;100397.47;4866746;28;24443;-65
2023/12/09 04:07:03;;;;;;;22.98;12.85;;;7.40;99.90;;;7.61;100.00;100387.94;4859116;28;24821;-65
2023/12/09 04:09:24;;;;;;;21.80;13.32;;;7.40;99.90;;;7.65;100.00;100389.41;4867351;28;24519;-65
2023/12/09 04:11:46;;;;;;;22.50;13.20;;;7.40;99.90;;;7.61;100.00;100374.97;4871416;28;25296;-66
2023/12/09 04:14:08;;;;;;;23.15;14.10;;;7.40;99.90;;;7.61;100.00;100381.00;4867153;28;24497;-65
2023/12/09 04:16:30;;;;;;;24.23;14.10;;;7.40;99.90;;;7.61;100.00;100380.16;4863560;28;25007;-65
2023/12/09 04:18:52;;;;;;;23.55;13.52;;;7.40;99.90;;;7.60;100.00;100378.50;4854170;28;24432;-66
2023/12/09 04:21:14;;;;;;;26.40;14.27;;;7.40;99.90;;;7.58;100.00;100390.75;4873603;28;24459;-65
2023/12/09 04:23:36;;;;;;;25.52;14.00;;;7.40;99.90;;;7.57;100.00;100381.28;4871437;28;24443;-65
2023/12/09 04:25:58;;;;;;;26.20;14.80;;;7.40;99.90;;;7.51;100.00;100390.31;4869655;28;25297;-65
2023/12/09 04:28:20;;;;;;;26.02;13.85;;;7.30;99.90;;;7.54;100.00;100392.69;4866250;28;24471;-65
2023/12/09 04:30:42;;;;;;;24.67;14.33;;;7.30;99.90;;;7.54;100.00;100397.03;4866298;28;24486;-66
2023/12/09 04:33:04;;;;;;;23.10;13.38;;;7.40;99.90;;;7.56;100.00;100382.22;4854871;28;24519;-66
2023/12/09 04:35:26;;;;;;;25.73;13.70;;;7.40;99.90;;;7.51;100.00;100402.44;4864417;28;24443;-65
2023/12/09 04:37:48;;;;;;;23.05;12.98;;;7.30;99.90;;;7.52;100.00;100389.34;4866207;28;25042;-65
2023/12/09 04:40:10;;;;;;;24.95;13.60;;;7.40;99.90;;;7.53;100.00;100400.59;4872393;28;24605;-64
2023/12/09 04:42:32;;;;;;;23.95;13.20;;;7.30;99.90;;;7.54;100.00;100395.28;4865776;28;24474;-67
2023/12/09 04:44:54;;;;;;;19.95;11.77;;;7.40;99.90;;;7.51;100.00;100385.09;4872336;28;24537;-65
2023/12/09 04:47:16;;;;;;;22.67;12.13;;;7.40;99.90;;;7.47;100.00;100382.81;4863932;28;24439;-65
2023/12/09 04:49:38;;;;;;;19.88;11.90;;;7.30;99.90;;;7.46;100.00;100384.56;4861299;28;25203;-66
2023/12/09 04:52:00;;;;;;;20.63;12.10;;;7.30;99.90;;;7.38;100.00;100373.81;4873712;28;24525;-65
2023/12/09 04:54:22;;;;;;;18.65;11.30;;;7.30;99.90;;;7.39;100.00;100375.47;4871236;28;24458;-68
2023/12/09 04:56:44;;;;;;;20.05;11.68;;;7.20;99.90;;;7.39;100.00;100372.88;4881931;28;25260;-65
2023/12/09 04:59:06;;;;;;;23.70;12.48;;;7.20;99.90;;;7.43;100.00;100371.75;4864137;28;24976;-65
2023/12/09 05:01:28;;;;;;;21.65;11.20;;;7.20;99.90;;;7.47;100.00;100364.63;4866102;28;24463;-65
2023/12/09 05:03:50;;;;;;;19.50;10.98;;;7.20;99.90;;;7.52;100.00;100365.16;4871090;28;24585;-65
2023/12/09 05:06:12;;;;;;;17.40;10.55;;;7.30;99.90;;;7.52;100.00;100360.78;4872314;28;24509;-65
2023/12/09 05:08:34;;;;;;;17.02;9.98;;;7.30;99.90;;;7.53;100.00;100362.47;4863850;28;24451;-65
2023/12/09 05:10:56;;;;;;;16.55;10.07;;;7.30;99.90;;;7.56;100.00;100362.25;4869044;28;24485;-65
2023/12/09 05:13:18;;;;;;;19.10;10.00;;;7.30;99.90;;;7.57;100.00;100356.16;4866914;28;24435;-66
2023/12/09 05:15:40;;;;;;;17.85;10.25;;;7.40;99.90;;;7.61;100.00;100351.59;4869624;28;24797;-66
2023/12/09 05:18:02;;;;;;;16.20;9.18;;;7.40;99.90;;;7.57;100.00;100344.94;4866918;28;24438;-66
2023/12/09 05:20:24;;;;;;;18.77;10.38;;;7.40;99.90;;;7.52;100.00;100340.03;4867035;28;24428;-65
2023/12/09 05:22:46;;;;;;;15.48;9.43;;;7.40;99.90;;;7.56;100.00;100346.69;4854970;28;24562;-65
2023/12/09 05:25:08;;;;;;;15.07;9.05;;;7.40;99.90;;;7.55;100.00;100336.41;4872839;28;24539;-65
2023/12/09 05:27:31;;;;;;;13.82;8.35;;;7.30;99.90;;;7.51;100.00;100333.19;4871602;28;24446;-66
2023/12/09 05:29:53;;;;;;;14.75;8.68;;;7.30;99.90;;;7.51;100.00;100337.53;4872708;28;24430;-65
2023/12/09 05:32:15;;;;;;;14.60;7.70;;;7.30;99.90;;;7.45;100.00;100330.16;4867484;28;24451;-65
2023/12/09 05:34:37;;;;;;;14.15;7.65;;;7.30;99.90;;;7.40;100.00;100330.44;4870041;28;24793;-65
2023/12/09 05:36:59;;;;;;;14.85;7.80;;;7.30;99.90;;;7.42;100.00;100333.75;4868430;28;24451;-66
2023/12/09 05:39:21;;;;;;;12.70;7.10;;;7.30;99.90;;;7.46;100.00;100330.03;4863103;28;24498;-66
2023/12/09 05:41:43;;;;;;;13.17;7.53;;;7.30;99.90;;;7.48;100.00;100329.94;4861385;28;24530;-66
2023/12/09 05:44:05;;;;;;;15.23;8.07;;;7.30;99.90;;;7.49;100.00;100337.66;4862910;28;25199;-66
2023/12/09 05:46:27;;;;;;;15.27;8.70;;;7.30;99.90;;;7.51;100.00;100338.38;4873593;28;24466;-66
2023/12/09 05:48:49;;;;;;;17.92;9.07;;;7.30;99.90;;;7.49;100.00;100327.25;4871616;28;24561;-66
2023/12/09 05:51:11;;;;;;;19.63;9.30;;;7.30;99.90;;;7.52;100.00;100332.25;4873502;28;24423;-65
2023/12/09 05:53:33;;;;;;;18.27;9.20;;;7.30;99.90;;;7.51;100.00;100328.00;4870764;28;24443;-65
2023/12/09 05:55:55;;;;;;;16.30;9.88;;;7.30;99.90;;;7.51;100.00;100322.81;4873660;28;24979;-65
2023/12/09 05:58:18;;;;;;;16.13;9.32;;;7.40;99.90;;;7.57;100.00;100322.41;4870808;28;25265;-65
2023/12/09 06:00:40;;;;;;;16.42;9.05;;;7.40;99.90;;;7.54;100.00;100322.59;4869153;28;24526;-65
2023/12/09 06:03:02;;;;;;;20.00;9.10;;;7.40;99.90;;;7.56;100.00;100304.34;4868573;28;24431;-65
2023/12/09 06:05:24;;;;;;;15.57;9.20;;;7.40;99.90;;;7.63;100.00;100313.38;4873761;28;24438;-65
2023/12/09 06:07:46;;;;;;;17.65;9.40;;;7.40;99.90;;;7.65;100.00;100308.91;4870223;28;24523;-65
2023/12/09 06:10:08;;;;;;;19.40;9.40;;;7.40;99.90;;;7.70;100.00;100310.28;4867898;28;24427;-64
2023/12/09 06:12:30;;;;;;;18.25;9.70;;;7.50;99.90;;;7.72;100.00;100313.63;4873865;28;25008;-65
2023/12/09 06:14:53;;;;;;;19.52;9.90;;;7.50;99.90;;;7.62;100.00;100315.13;4871056;28;24450;-65
2023/12/09 06:17:15;;;;;;;17.67;10.02;;;7.50;99.90;;;7.50;100.00;100315.94;4876451;28;24488;-65
2023/12/09 06:19:37;;;;;;;18.73;10.40;;;7.40;99.90;;;7.48;100.00;100315.19;4872192;28;24530;-65
2023/12/09 06:21:59;;;;;;;21.00;10.70;;;7.40;99.90;;;7.52;100.00;100319.25;4876393;28;24459;-65
2023/12/09 06:24:21;;;;;;;20.13;10.98;;;7.40;99.90;;;7.61;100.00;100310.88;4873869;28;25057;-65
2023/12/09 06:26:44;;;;;;;17.02;9.32;;;7.40;99.90;;;7.56;100.00;100310.34;4884546;28;24454;-64
2023/12/09 06:29:06;;;;;;;18.75;10.73;;;7.40;99.90;;;7.55;100.00;100308.69;4872236;28;24450;-65
2023/12/09 06:31:28;;;;;;;19.08;10.07;;;7.40;99.90;;;7.62;100.00;100309.94;4867410;28;24489;-65
2023/12/09 06:33:50;;;;;;;20.05;10.40;;;7.40;99.90;;;7.67;100.00;100297.50;4871123;28;24548;-65
2023/12/09 06:36:12;;;;;;;17.52;9.85;;;7.50;99.90;;;7.69;100.00;100306.03;4857242;28;24434;-65
2023/12/09 06:38:39;;;;;;;19.58;10.10;;;7.50;99.90;;;7.70;100.00;100301.66;4856232;28;24454;-66
2023/12/09 06:41:01;;;;;;;18.05;10.40;;;7.50;99.90;;;7.72;100.00;100290.25;4856727;28;25000;-65
2023/12/09 06:43:23;;;;;;;21.42;10.50;;;7.50;99.90;;;7.69;100.00;100289.59;4867223;28;24636;-64
2023/12/09 06:45:45;;;;;;;19.48;9.40;;;7.50;99.90;;;7.69;100.00;100290.44;4873232;28;25052;-65
2023/12/09 06:48:07;;;;;;;18.05;9.88;;;7.50;99.90;;;7.73;100.00;100284.13;4875471;28;24514;-65
2023/12/09 06:50:29;;;;;;;16.33;9.80;;;7.50;99.90;;;7.76;100.00;100283.94;4860198;28;24523;-65
2023/12/09 06:52:51;;;;;;;19.98;10.20;;;7.60;99.90;;;7.71;100.00;100283.38;4873454;28;24434;-64
2023/12/09 06:55:13;;;;;;;17.30;10.20;;;7.60;99.90;;;7.64;100.00;100289.09;4875047;28;24435;-65
2023/12/09 06:57:35;;;;;;;17.80;9.35;;;7.50;99.90;;;7.54;100.00;100286.25;4874197;28;24498;-65
2023/12/09 06:59:57;;;;;;;18.17;9.20;;;7.40;99.90;;;7.53;100.00;100283.75;4864516;28;24467;-65
2023/12/09 07:02:19;;;;;;;19.05;10.10;;;7.40;99.90;;;7.51;100.00;100290.81;4860597;28;24816;-64
2023/12/09 07:04:41;;;;;;;18.55;10.52;;;7.40;99.90;;;7.41;100.00;100290.56;4875329;28;24438;-65
2023/12/09 07:07:03;;;;;;;18.15;9.55;;;7.30;99.90;;;7.46;100.00;100305.84;4871964;28;24447;-65
2023/12/09 07:09:25;;;;;;;16.83;9.35;;;7.30;99.90;;;7.39;100.00;100302.81;4874367;28;24446;-65
2023/12/09 07:11:47;;;;;;;17.93;8.77;;;7.30;99.90;;;7.35;100.00;100306.53;4874653;28;24561;-65
2023/12/09 07:14:22;;;;;;;19.48;10.48;;;7.30;99.90;;;7.30;100.00;100303.41;4867490;28;24900;-65
2023/12/09 07:16:44;;;;;;;18.45;9.40;;;7.20;99.90;;;7.30;100.00;100307.75;4875567;28;24535;-65
2023/12/09 07:19:06;;;;;;;16.98;8.00;;;7.20;99.90;;;7.29;100.00;100312.13;4872740;28;24447;-65
2023/12/09 07:21:28;;;;;;;19.67;9.80;;;7.20;99.90;;;7.28;100.00;100313.06;4875382;28;24448;-64
2023/12/09 07:23:51;;;;;;;20.25;11.02;;;7.10;99.90;;;7.34;100.00;100312.66;4874917;28;24473;-65
2023/12/09 07:26:13;;;;;;;20.02;10.10;;;7.20;99.90;;;7.32;100.00;100306.75;4873825;28;24542;-65
2023/12/09 07:28:35;;;;;;;17.13;9.40;;;7.20;99.90;;;7.36;100.00;100318.59;4875209;28;24547;-65
2023/12/09 07:30:57;;;;;;;18.55;10.15;;;7.20;99.90;;;7.37;100.00;100315.03;4862970;28;24532;-65
2023/12/09 07:33:19;;;;;;;20.35;9.85;;;7.20;99.90;;;7.40;100.00;100316.63;4861895;28;24519;-65
2023/12/09 07:35:41;;;;;;;18.37;9.60;;;7.20;99.90;;;7.35;100.00;100316.91;4863901;28;25009;-64
2023/12/09 07:38:03;;;;;;;20.10;9.80;;;7.30;99.90;;;7.31;100.00;100304.22;4874905;28;24427;-65
2023/12/09 07:40:25;;;;;;;17.02;9.45;;;7.20;99.90;;;7.30;100.00;100307.75;4871469;28;24882;-63
2023/12/09 07:42:47;;;;;;;19.38;10.10;;;7.20;99.90;;;7.30;100.00;100311.19;4874775;28;24459;-65
2023/12/09 07:45:09;;;;;;;19.05;10.00;;;7.20;99.90;;;7.35;100.00;100313.47;4860456;28;25011;-65
2023/12/09 07:47:31;;;;;;;18.45;10.25;;;7.20;99.90;;;7.29;100.00;100304.31;4871096;28;24451;-65
2023/12/09 07:49:53;;;;;;;18.15;9.98;;;7.20;99.90;;;7.30;100.00;100306.00;4872479;28;25081;-65
2023/12/09 07:52:15;;;;;;;19.65;10.25;;;7.20;99.90;;;7.31;100.00;100305.06;4872796;28;24992;-64
2023/12/09 07:54:37;;;;;;;18.40;10.50;;;7.10;99.90;;;7.32;100.00;100303.31;4873343;28;24435;-65
2023/12/09 07:56:59;;;;;;;18.70;8.85;;;7.20;99.90;;;7.32;100.00;100295.53;4874815;28;24484;-65
2023/12/09 07:59:21;;;;;;;22.53;10.47;;;7.20;99.90;;;7.33;100.00;100287.63;4858826;28;24451;-66
2023/12/09 08:01:43;;;;;;;17.90;9.80;;;7.20;99.90;;;7.42;100.00;100287.03;4873610;28;24491;-65
2023/12/09 08:04:05;;;;;;;18.63;10.10;;;7.20;99.90;;;7.46;100.00;100280.72;4871913;28;24454;-66
2023/12/09 08:06:27;;;;;;;18.17;9.80;;;7.30;99.90;;;7.49;100.00;100282.28;4873965;28;24432;-65
2023/12/09 08:08:50;;;;;;;18.60;10.10;;;7.30;99.90;;;7.47;100.00;100269.41;4874824;28;24522;-66
2023/12/09 08:11:12;;;;;;;18.02;9.60;;;7.30;99.90;;;7.49;100.00;100267.56;4874031;28;25086;-64
2023/12/09 08:13:34;;;;;;;17.30;8.73;;;7.30;99.90;;;7.51;100.00;100270.03;4859453;28;24467;-65
2023/12/09 08:15:56;;;;;;;18.15;9.43;;;7.30;99.90;;;7.56;100.00;100268.00;4858916;28;24538;-64
2023/12/09 08:18:18;;;;;;;18.55;9.98;;;7.40;99.90;;;7.59;100.00;100271.22;4858223;28;24431;-65
2023/12/09 08:20:40;;;;;;;18.38;9.88;;;7.40;99.90;;;7.57;100.00;100275.66;4856954;28;24474;-65
2023/12/09 08:23:03;;;;;;;15.10;8.00;;;7.40;99.90;;;7.62;100.00;100273.59;4858420;28;24466;-65
2023/12/09 08:25:25;;;;;;;16.35;8.52;;;7.40;99.90;;;7.67;100.00;100278.47;4867567;28;25039;-64
2023/12/09 08:27:47;;;;;;;19.73;9.55;;;7.50;99.90;;;7.75;100.00;100264.06;4867951;28;24443;-65
2023/12/09 08:30:10;;;;;;;18.67;9.10;;;7.50;99.90;;;7.80;100.00;100267.19;4870426;28;25028;-65
2023/12/09 08:32:32;;;;;;;17.27;9.20;;;7.60;99.90;;;7.87;100.00;100266.78;4872631;28;24450;-66
2023/12/09 08:34:54;;;;;;;16.63;8.27;;;7.60;99.90;;;7.97;100.00;100267.84;4871736;28;24443;-65
2023/12/09 08:37:30;;;;;;;14.23;8.30;;;7.70;99.90;;;7.98;100.00;100274.72;4872009;28;24486;-65
2023/12/09 08:39:56;;;;;;;17.02;8.20;;;7.80;99.90;;;8.05;100.00;100275.97;4873067;28;25051;-65
2023/12/09 08:42:18;;;;;;;16.33;8.40;;;7.80;99.90;;;8.08;100.00;100263.59;4867602;28;24546;-66
2023/12/09 08:44:42;;;;;;;16.20;8.43;;;7.90;99.90;;;8.15;100.00;100245.81;4870063;28;24477;-66
2023/12/09 08:47:04;;;;;;;19.02;8.65;;;7.90;99.90;;;8.22;100.00;100226.28;4874048;28;24514;-67
2023/12/09 08:49:28;;;;;;;17.55;8.63;;;8.00;99.90;;;8.35;100.00;100229.72;4872391;28;24530;-65
2023/12/09 08:51:50;;;;;;;19.60;9.95;;;8.10;99.90;;;8.48;100.00;100222.72;4872566;28;20797;-66
2023/12/09 08:54:13;;;;;;;15.55;8.55;;;8.20;99.90;;;8.52;100.00;100224.19;4872996;28;25302;-66
2023/12/09 08:56:35;;;;;;;21.65;10.40;;;8.30;99.90;;;8.63;100.00;100220.81;4871908;28;24443;-67
2023/12/09 08:58:57;;;;;;;19.75;9.90;;;8.40;99.90;;;8.75;100.00;100222.59;4877351;28;24431;-65
2023/12/09 09:01:19;;;;;;;18.30;9.38;;;8.40;99.90;;;8.77;100.00;100221.53;4863466;28;24447;-66
2023/12/09 09:03:41;;;;;;;18.80;9.25;;;8.50;99.90;;;8.72;100.00;100218.41;4864774;28;25058;-66
2023/12/09 09:06:03;;;;;;;12.18;6.20;;;8.50;99.90;;;8.52;100.00;100216.38;4865587;28;24494;-66
2023/12/09 09:08:25;;;;;;;15.27;8.38;;;8.40;99.90;;;8.53;100.00;100211.09;4879766;28;24806;-67
2023/12/09 09:10:49;;;;;;;15.60;8.63;;;8.30;99.90;;;8.54;100.00;100217.09;4871292;28;24451;-63
2023/12/09 09:13:11;;;;;;;15.32;8.30;;;8.30;99.90;;;8.55;100.00;100204.00;4869029;28;24446;-64
2023/12/09 09:15:33;;;;;;;18.30;9.85;;;8.40;99.90;;;8.59;100.00;100200.25;4871041;28;24454;-65
2023/12/09 09:17:55;;;;;;;15.97;8.80;;;8.40;99.90;;;8.51;100.00;100201.72;4872395;28;20853;-66
2023/12/09 09:20:19;;;;;;;16.45;8.50;;;8.40;99.90;;;8.64;100.00;100197.34;4871467;28;24436;-65
2023/12/09 09:22:41;;;;;;;15.40;8.30;;;8.40;99.90;;;8.73;100.00;100196.66;4867966;28;24876;-64
2023/12/09 09:25:09;;;;;;;15.35;8.10;;;8.50;99.90;;;8.84;100.00;100193.31;4872860;28;24474;-65
2023/12/09 09:27:31;;;;;;;11.95;6.93;;;8.60;99.90;;;8.87;100.00;100187.88;4870995;28;25100;-64
2023/12/09 09:29:53;;;;;;;15.95;6.93;;;8.60;99.90;;;8.90;100.00;100187.66;4871325;28;24965;-65
2023/12/09 09:32:16;;;;;;;15.70;7.63;;;8.70;99.90;;;8.90;100.00;100183.28;4873411;28;24445;-64
2023/12/09 09:34:38;;;;;;;15.70;8.40;;;8.70;99.90;;;9.03;100.00;100181.44;4882771;28;24808;-65
2023/12/09 09:37:00;;;;;;;14.07;8.00;;;8.70;99.90;;;9.02;100.00;100172.00;4865025;28;24508;-64
2023/12/09 09:39:21;;;;;;;12.82;7.13;;;8.80;99.90;;;9.04;100.00;100169.28;4879598;28;24484;-64
2023/12/09 09:41:54;;;;;;;12.27;6.40;;;8.80;99.90;;;9.06;100.00;100157.00;4874923;28;24523;-63
2023/12/09 09:44:22;;;;;;;12.85;6.93;;;8.80;99.90;;;9.12;100.00;100167.78;4873848;28;24531;-67
2023/12/09 09:46:46;;;;;;;17.75;8.20;;;8.90;99.90;;;9.06;100.00;100162.19;4867138;28;24493;-65
2023/12/09 09:49:10;;;;;;;13.32;6.43;;;8.90;99.90;;;8.89;100.00;100168.63;4873306;28;24451;-65